Αρχική σελίδα
METAR-TAF:

METAR-TAF

Αεροδρόμια :

Χαράρε, Ζιμπάμπουε

γεωγραφικό πλάτος: 17-55S, γεωγραφικό μήκος: 031-08E, υψόμετρο: 1479 μ

Παρών καιρός

Η αναφορά έγινε 3 ώρες και 1 λεπτά πριν, στις 00:00 UTC
Άνεμος 6 kt από Β/BA
Θερμοκρασία 10°C
Υγρασία 82%
Πίεση 1025 hPa
Ορατότητα 10 χλμ και άνω
Δεν υπάρχουν νέφη με βάση κάτω από τα 1500 μ. και δεν υπάρχουν νέφη σωρειτομελανίτες.

METAR: FVHA 240000Z 03006KT CAVOK 10/07 Q1025

Χρόνος: 05:01 (03:01 UTC)

Πρόγνωση Καιρού

Η αναφορά έγινε 11 ώρες και 1 λεπτά πριν, στις 16:00 UTC
Η πρόγνωση ισχύει από τις 23 στις 18 UTC έως τις 24 στις 24 UTC
Άνεμος 6 kt από Ν/NA
Ορατότητα 10 χλμ και άνω
Δεν υπάρχουν νέφη με βάση κάτω από τα 1500 μ. και δεν υπάρχουν νέφη σωρειτομελανίτες.

TAF: FVHA 231600Z 2318/2424 15006KT CAVOK

Μετεωρολογικές αναφορές και προγνώσεις για περισσότερα από 4000 αεροδρόμια (δελτία METAR και TAF).

Οι διαθέσιμοι σταθμοί απεικονίζονται στο χάρτη με κίτρινες και κόκκινες κουκκίδες.

Μετακινήστε το ποντίκι πάνω από τις κουκκίδες για να δείτε το όνομα του σταθμού.

Στη συνέχεια, κάντε κλικ για να δείτε τις μετεωρολογικές αναφορές και τις προγνώσεις καιρού.

Για να αλλάξετε το χάρτη: κάντε κλικ στα πράσινα κουμπιά με τον μαύρο σταυρό για να ζουμάρετε, στο πράσινο κουμπί με την παύλα για να αφαιρέσετε το ζουμ ή στα πράσινα βέλη για να αντιπαραβάλλετε χάρτες.


METAR-TAF: